sensor_id;sensor_type;location;lat;lon;timestamp;pressure;altitude;pressure_sealevel;temperature;humidity
41264;BME280;26998;48.714;9.414;2023-10-13T00:01:24;99780.25;;;14.82;100.00
41264;BME280;26998;48.714;9.414;2023-10-13T00:03:50;99777.78;;;14.81;100.00
41264;BME280;26998;48.714;9.414;2023-10-13T00:06:17;99787.50;;;14.82;100.00
41264;BME280;26998;48.714;9.414;2023-10-13T00:08:45;99793.72;;;14.82;100.00
41264;BME280;26998;48.714;9.414;2023-10-13T00:11:13;99789.38;;;14.81;100.00
41264;BME280;26998;48.714;9.414;2023-10-13T00:13:41;99792.47;;;14.78;100.00
41264;BME280;26998;48.714;9.414;2023-10-13T00:16:09;99812.53;;;14.75;100.00
41264;BME280;26998;48.714;9.414;2023-10-13T00:18:36;99823.28;;;14.69;100.00
41264;BME280;26998;48.714;9.414;2023-10-13T00:21:03;99851.19;;;14.61;100.00
41264;BME280;26998;48.714;9.414;2023-10-13T00:23:29;99859.28;;;14.61;100.00
41264;BME280;26998;48.714;9.414;2023-10-13T00:25:56;99865.22;;;14.57;100.00
41264;BME280;26998;48.714;9.414;2023-10-13T00:28:24;99865.63;;;14.53;100.00
41264;BME280;26998;48.714;9.414;2023-10-13T00:30:51;99875.56;;;14.53;100.00
41264;BME280;26998;48.714;9.414;2023-10-13T00:33:17;99885.63;;;14.44;100.00
41264;BME280;26998;48.714;9.414;2023-10-13T00:35:44;99897.59;;;14.42;100.00
41264;BME280;26998;48.714;9.414;2023-10-13T00:38:10;99900.69;;;14.39;100.00
41264;BME280;26998;48.714;9.414;2023-10-13T00:40:37;99923.75;;;14.26;100.00
41264;BME280;26998;48.714;9.414;2023-10-13T00:43:04;99943.53;;;14.12;100.00
41264;BME280;26998;48.714;9.414;2023-10-13T00:45:34;99978.22;;;14.07;100.00
41264;BME280;26998;48.714;9.414;2023-10-13T00:48:01;99996.31;;;13.98;100.00
41264;BME280;26998;48.714;9.414;2023-10-13T00:50:30;100025.44;;;13.95;100.00
41264;BME280;26998;48.714;9.414;2023-10-13T00:52:57;100052.53;;;13.93;100.00
41264;BME280;26998;48.714;9.414;2023-10-13T00:55:25;100068.56;;;13.86;100.00
41264;BME280;26998;48.714;9.414;2023-10-13T00:57:53;100093.22;;;13.90;100.00
41264;BME280;26998;48.714;9.414;2023-10-13T01:00:21;100082.38;;;13.83;100.00
41264;BME280;26998;48.714;9.414;2023-10-13T01:02:52;100100.16;;;13.84;100.00
41264;BME280;26998;48.714;9.414;2023-10-13T01:05:22;100102.13;;;13.76;100.00
41264;BME280;26998;48.714;9.414;2023-10-13T01:07:54;100110.84;;;13.63;100.00
41264;BME280;26998;48.714;9.414;2023-10-13T01:10:22;100145.69;;;13.56;100.00
41264;BME280;26998;48.714;9.414;2023-10-13T01:12:49;100171.06;;;13.54;100.00
41264;BME280;26998;48.714;9.414;2023-10-13T01:15:16;100184.88;;;13.51;100.00
41264;BME280;26998;48.714;9.414;2023-10-13T01:17:42;100187.91;;;13.48;100.00
41264;BME280;26998;48.714;9.414;2023-10-13T01:20:10;100188.84;;;13.40;100.00
41264;BME280;26998;48.714;9.414;2023-10-13T01:22:36;100200.50;;;13.32;100.00
41264;BME280;26998;48.714;9.414;2023-10-13T01:25:05;100196.59;;;13.35;100.00
41264;BME280;26998;48.714;9.414;2023-10-13T01:27:36;100183.84;;;13.37;100.00
41264;BME280;26998;48.714;9.414;2023-10-13T01:30:05;100197.53;;;13.27;100.00
41264;BME280;26998;48.714;9.414;2023-10-13T01:32:34;100195.19;;;13.24;100.00
41264;BME280;26998;48.714;9.414;2023-10-13T01:35:02;100211.28;;;13.24;100.00
41264;BME280;26998;48.714;9.414;2023-10-13T01:37:29;100202.28;;;13.17;100.00
41264;BME280;26998;48.714;9.414;2023-10-13T01:39:59;100209.03;;;13.13;100.00
41264;BME280;26998;48.714;9.414;2023-10-13T01:42:25;100200.50;;;13.09;100.00
41264;BME280;26998;48.714;9.414;2023-10-13T01:44:53;100215.44;;;13.12;100.00
41264;BME280;26998;48.714;9.414;2023-10-13T01:47:22;100200.69;;;13.08;100.00
41264;BME280;26998;48.714;9.414;2023-10-13T01:49:49;100203.63;;;12.98;100.00
41264;BME280;26998;48.714;9.414;2023-10-13T01:52:17;100200.53;;;12.86;100.00
41264;BME280;26998;48.714;9.414;2023-10-13T01:54:46;100224.41;;;12.81;100.00
41264;BME280;26998;48.714;9.414;2023-10-13T01:57:16;100230.81;;;12.72;100.00
41264;BME280;26998;48.714;9.414;2023-10-13T01:59:50;100265.63;;;12.57;100.00
41264;BME280;26998;48.714;9.414;2023-10-13T02:02:17;100305.38;;;12.54;100.00
41264;BME280;26998;48.714;9.414;2023-10-13T02:04:44;100321.13;;;12.48;100.00
41264;BME280;26998;48.714;9.414;2023-10-13T02:07:11;100345.81;;;12.44;100.00
41264;BME280;26998;48.714;9.414;2023-10-13T02:09:37;100364.38;;;12.45;100.00
41264;BME280;26998;48.714;9.414;2023-10-13T02:12:04;100381.34;;;12.38;100.00
41264;BME280;26998;48.714;9.414;2023-10-13T02:14:31;100395.09;;;12.35;100.00
41264;BME280;26998;48.714;9.414;2023-10-13T02:16:57;100400.31;;;12.28;100.00
41264;BME280;26998;48.714;9.414;2023-10-13T02:19:24;100412.53;;;12.31;100.00
41264;BME280;26998;48.714;9.414;2023-10-13T02:21:51;100407.69;;;12.26;100.00
41264;BME280;26998;48.714;9.414;2023-10-13T02:24:17;100413.03;;;12.26;100.00
41264;BME280;26998;48.714;9.414;2023-10-13T02:26:45;100412.41;;;12.16;100.00
41264;BME280;26998;48.714;9.414;2023-10-13T02:29:11;100427.13;;;12.12;100.00
41264;BME280;26998;48.714;9.414;2023-10-13T02:31:40;100439.38;;;12.06;100.00
41264;BME280;26998;48.714;9.414;2023-10-13T02:34:07;100443.72;;;11.99;100.00
41264;BME280;26998;48.714;9.414;2023-10-13T02:36:35;100444.25;;;12.02;100.00
41264;BME280;26998;48.714;9.414;2023-10-13T02:39:03;100440.69;;;12.02;100.00
41264;BME280;26998;48.714;9.414;2023-10-13T02:41:29;100441.03;;;11.99;100.00
41264;BME280;26998;48.714;9.414;2023-10-13T02:43:56;100438.19;;;11.92;100.00
41264;BME280;26998;48.714;9.414;2023-10-13T02:46:23;100442.91;;;11.90;100.00
41264;BME280;26998;48.714;9.414;2023-10-13T02:48:52;100440.56;;;11.87;100.00
41264;BME280;26998;48.714;9.414;2023-10-13T02:51:20;100437.56;;;11.90;100.00
41264;BME280;26998;48.714;9.414;2023-10-13T02:53:47;100431.53;;;11.96;100.00
41264;BME280;26998;48.714;9.414;2023-10-13T02:56:15;100409.59;;;11.85;100.00
41264;BME280;26998;48.714;9.414;2023-10-13T02:58:41;100405.88;;;11.77;100.00
41264;BME280;26998;48.714;9.414;2023-10-13T03:01:08;100405.38;;;11.82;100.00
41264;BME280;26998;48.714;9.414;2023-10-13T03:03:35;100389.47;;;11.89;100.00
41264;BME280;26998;48.714;9.414;2023-10-13T03:06:03;100379.94;;;11.78;100.00
41264;BME280;26998;48.714;9.414;2023-10-13T03:08:29;100385.28;;;11.70;100.00
41264;BME280;26998;48.714;9.414;2023-10-13T03:10:56;100405.53;;;11.64;100.00
41264;BME280;26998;48.714;9.414;2023-10-13T03:13:23;100405.53;;;11.56;100.00
41264;BME280;26998;48.714;9.414;2023-10-13T03:15:49;100412.72;;;11.55;100.00
41264;BME280;26998;48.714;9.414;2023-10-13T03:18:16;100427.09;;;11.54;100.00
41264;BME280;26998;48.714;9.414;2023-10-13T03:20:46;100435.47;;;11.51;100.00
41264;BME280;26998;48.714;9.414;2023-10-13T03:23:13;100453.53;;;11.49;100.00
41264;BME280;26998;48.714;9.414;2023-10-13T03:25:42;100463.75;;;11.46;100.00
41264;BME280;26998;48.714;9.414;2023-10-13T03:28:08;100472.59;;;11.46;100.00
41264;BME280;26998;48.714;9.414;2023-10-13T03:30:38;100478.47;;;11.42;100.00
41264;BME280;26998;48.714;9.414;2023-10-13T03:33:05;100484.31;;;11.37;100.00
41264;BME280;26998;48.714;9.414;2023-10-13T03:35:33;100489.00;;;11.35;100.00
41264;BME280;26998;48.714;9.414;2023-10-13T03:38:01;100486.78;;;11.30;100.00
41264;BME280;26998;48.714;9.414;2023-10-13T03:40:28;100486.28;;;11.27;100.00
41264;BME280;26998;48.714;9.414;2023-10-13T03:42:57;100476.25;;;11.29;100.00
41264;BME280;26998;48.714;9.414;2023-10-13T03:45:24;100475.75;;;11.25;100.00
41264;BME280;26998;48.714;9.414;2023-10-13T03:47:54;100487.25;;;11.18;100.00
41264;BME280;26998;48.714;9.414;2023-10-13T03:50:21;100498.78;;;11.18;100.00
41264;BME280;26998;48.714;9.414;2023-10-13T03:52:47;100516.22;;;11.22;100.00
41264;BME280;26998;48.714;9.414;2023-10-13T03:55:14;100523.88;;;11.17;100.00
41264;BME280;26998;48.714;9.414;2023-10-13T03:57:40;100518.34;;;11.10;100.00
41264;BME280;26998;48.714;9.414;2023-10-13T04:00:07;100512.84;;;11.12;100.00
41264;BME280;26998;48.714;9.414;2023-10-13T04:02:34;100517.34;;;11.12;100.00
41264;BME280;26998;48.714;9.414;2023-10-13T04:05:01;100513.31;;;11.07;100.00
41264;BME280;26998;48.714;9.414;2023-10-13T04:07:28;100497.56;;;11.04;100.00
41264;BME280;26998;48.714;9.414;2023-10-13T04:09:57;100486.19;;;11.02;100.00
41264;BME280;26998;48.714;9.414;2023-10-13T04:12:24;100475.28;;;10.96;100.00
41264;BME280;26998;48.714;9.414;2023-10-13T04:14:53;100490.06;;;11.00;100.00
41264;BME280;26998;48.714;9.414;2023-10-13T04:17:20;100482.03;;;11.00;100.00
41264;BME280;26998;48.714;9.414;2023-10-13T04:19:47;100488.00;;;10.94;100.00
41264;BME280;26998;48.714;9.414;2023-10-13T04:22:14;100495.34;;;10.92;100.00
41264;BME280;26998;48.714;9.414;2023-10-13T04:24:41;100489.81;;;10.93;100.00
41264;BME280;26998;48.714;9.414;2023-10-13T04:27:07;100484.97;;;10.89;100.00
41264;BME280;26998;48.714;9.414;2023-10-13T04:29:33;100478.94;;;10.86;100.00
41264;BME280;26998;48.714;9.414;2023-10-13T04:32:00;100476.13;;;10.88;100.00
41264;BME280;26998;48.714;9.414;2023-10-13T04:34:27;100478.09;;;10.86;100.00
41264;BME280;26998;48.714;9.414;2023-10-13T04:36:53;100466.06;;;10.82;100.00
41264;BME280;26998;48.714;9.414;2023-10-13T04:39:21;100463.19;;;10.83;100.00
41264;BME280;26998;48.714;9.414;2023-10-13T04:41:47;100458.50;;;10.77;100.00
41264;BME280;26998;48.714;9.414;2023-10-13T04:44:15;100448.47;;;10.79;100.00
41264;BME280;26998;48.714;9.414;2023-10-13T04:46:42;100433.09;;;10.73;100.00
41264;BME280;26998;48.714;9.414;2023-10-13T04:49:09;100444.59;;;10.74;100.00
41264;BME280;26998;48.714;9.414;2023-10-13T04:51:37;100446.78;;;10.70;100.00
41264;BME280;26998;48.714;9.414;2023-10-13T04:54:04;100434.56;;;10.68;100.00
41264;BME280;26998;48.714;9.414;2023-10-13T04:56:32;100434.56;;;10.68;100.00
41264;BME280;26998;48.714;9.414;2023-10-13T04:58:59;100434.03;;;10.64;100.00
41264;BME280;26998;48.714;9.414;2023-10-13T05:01:25;100441.88;;;10.57;100.00
41264;BME280;26998;48.714;9.414;2023-10-13T05:03:53;100448.22;;;10.56;100.00
41264;BME280;26998;48.714;9.414;2023-10-13T05:06:23;100444.69;;;10.56;100.00
41264;BME280;26998;48.714;9.414;2023-10-13T05:08:53;100435.16;;;10.53;100.00
41264;BME280;26998;48.714;9.414;2023-10-13T05:11:19;100438.81;;;10.52;100.00
41264;BME280;26998;48.714;9.414;2023-10-13T05:13:46;100430.28;;;10.49;100.00
41264;BME280;26998;48.714;9.414;2023-10-13T05:16:13;100421.91;;;10.44;100.00
41264;BME280;26998;48.714;9.414;2023-10-13T05:18:39;100422.44;;;10.47;100.00
41264;BME280;26998;48.714;9.414;2023-10-13T05:21:06;100409.38;;;10.44;100.00
41264;BME280;26998;48.714;9.414;2023-10-13T05:23:32;100416.56;;;10.44;100.00
41264;BME280;26998;48.714;9.414;2023-10-13T05:26:02;100403.53;;;10.40;100.00
41264;BME280;26998;48.714;9.414;2023-10-13T05:28:28;100411.06;;;10.45;100.00
41264;BME280;26998;48.714;9.414;2023-10-13T05:31:02;100402.19;;;10.45;100.00
41264;BME280;26998;48.714;9.414;2023-10-13T05:33:29;100387.97;;;10.36;100.00
41264;BME280;26998;48.714;9.414;2023-10-13T05:35:55;100389.88;;;10.26;100.00
41264;BME280;26998;48.714;9.414;2023-10-13T05:38:22;100396.19;;;10.25;100.00
41264;BME280;26998;48.714;9.414;2023-10-13T05:41:00;100398.88;;;10.25;100.00
41264;BME280;26998;48.714;9.414;2023-10-13T05:43:27;100398.88;;;10.25;100.00
41264;BME280;26998;48.714;9.414;2023-10-13T05:46:00;100396.50;;;10.22;100.00
41264;BME280;26998;48.714;9.414;2023-10-13T05:48:31;100398.03;;;10.24;100.00
41264;BME280;26998;48.714;9.414;2023-10-13T05:51:00;100398.75;;;10.26;100.00
41264;BME280;26998;48.714;9.414;2023-10-13T05:53:27;100402.25;;;10.27;100.00
41264;BME280;26998;48.714;9.414;2023-10-13T05:55:59;100386.22;;;10.27;100.00
41264;BME280;26998;48.714;9.414;2023-10-13T05:58:26;100389.03;;;10.25;100.00
41264;BME280;26998;48.714;9.414;2023-10-13T06:00:56;100383.16;;;10.22;100.00
41264;BME280;26998;48.714;9.414;2023-10-13T06:03:23;100385.69;;;10.23;100.00
41264;BME280;26998;48.714;9.414;2023-10-13T06:05:50;100374.22;;;10.31;100.00
41264;BME280;26998;48.714;9.414;2023-10-13T06:08:16;100369.56;;;10.33;100.00
41264;BME280;26998;48.714;9.414;2023-10-13T06:10:43;100356.91;;;10.43;100.00
41264;BME280;26998;48.714;9.414;2023-10-13T06:13:10;100334.56;;;10.44;100.00
41264;BME280;26998;48.714;9.414;2023-10-13T06:15:38;100315.84;;;10.52;100.00
41264;BME280;26998;48.714;9.414;2023-10-13T06:18:05;100286.34;;;10.70;100.00
41264;BME280;26998;48.714;9.414;2023-10-13T06:20:32;100260.28;;;10.80;100.00
41264;BME280;26998;48.714;9.414;2023-10-13T06:23:04;100228.00;;;10.74;100.00
41264;BME280;26998;48.714;9.414;2023-10-13T06:25:32;100202.63;;;10.86;100.00
41264;BME280;26998;48.714;9.414;2023-10-13T06:27:59;100183.41;;;10.91;100.00
41264;BME280;26998;48.714;9.414;2023-10-13T06:30:26;100139.25;;;11.03;100.00
41264;BME280;26998;48.714;9.414;2023-10-13T06:32:52;100101.94;;;11.09;100.00
41264;BME280;26998;48.714;9.414;2023-10-13T06:35:19;100073.16;;;11.12;100.00
41264;BME280;26998;48.714;9.414;2023-10-13T06:37:46;100053.59;;;11.19;100.00
41264;BME280;26998;48.714;9.414;2023-10-13T06:40:14;100031.16;;;11.20;100.00
41264;BME280;26998;48.714;9.414;2023-10-13T06:42:42;99993.78;;;11.43;100.00
41264;BME280;26998;48.714;9.414;2023-10-13T06:45:09;99969.53;;;11.37;100.00
41264;BME280;26998;48.714;9.414;2023-10-13T06:47:36;99941.53;;;11.47;100.00
41264;BME280;26998;48.714;9.414;2023-10-13T06:50:06;99931.31;;;11.51;100.00
41264;BME280;26998;48.714;9.414;2023-10-13T06:52:33;99925.41;;;11.55;100.00
41264;BME280;26998;48.714;9.414;2023-10-13T06:54:59;99903.81;;;11.80;100.00
41264;BME280;26998;48.714;9.414;2023-10-13T06:57:26;99874.41;;;11.95;100.00
41264;BME280;26998;48.714;9.414;2023-10-13T06:59:53;99843.19;;;12.02;100.00
41264;BME280;26998;48.714;9.414;2023-10-13T07:02:22;99822.03;;;11.92;100.00
41264;BME280;26998;48.714;9.414;2023-10-13T07:05:03;99830.00;;;12.00;100.00
41264;BME280;26998;48.714;9.414;2023-10-13T07:07:30;99797.81;;;12.30;100.00
41264;BME280;26998;48.714;9.414;2023-10-13T07:09:56;99738.00;;;12.44;100.00
41264;BME280;26998;48.714;9.414;2023-10-13T07:12:23;99704.56;;;12.40;100.00
41264;BME280;26998;48.714;9.414;2023-10-13T07:14:52;99708.50;;;12.44;100.00
41264;BME280;26998;48.714;9.414;2023-10-13T07:17:19;99692.56;;;12.58;100.00
41264;BME280;26998;48.714;9.414;2023-10-13T07:19:47;99660.66;;;12.63;100.00
41264;BME280;26998;48.714;9.414;2023-10-13T07:22:13;99635.75;;;12.69;100.00
41264;BME280;26998;48.714;9.414;2023-10-13T07:24:40;99627.63;;;12.84;100.00
41264;BME280;26998;48.714;9.414;2023-10-13T07:27:07;99585.28;;;13.07;100.00
41264;BME280;26998;48.714;9.414;2023-10-13T07:29:34;99563.88;;;13.21;100.00
41264;BME280;26998;48.714;9.414;2023-10-13T07:32:06;99540.84;;;13.33;100.00
41264;BME280;26998;48.714;9.414;2023-10-13T07:34:32;99505.16;;;13.46;100.00
41264;BME280;26998;48.714;9.414;2023-10-13T07:37:00;99472.75;;;13.47;100.00
41264;BME280;26998;48.714;9.414;2023-10-13T07:39:29;99449.03;;;13.64;100.00
41264;BME280;26998;48.714;9.414;2023-10-13T07:41:57;99427.38;;;13.79;100.00
41264;BME280;26998;48.714;9.414;2023-10-13T07:44:24;99402.19;;;13.86;100.00
41264;BME280;26998;48.714;9.414;2023-10-13T07:46:52;99385.63;;;14.03;100.00
41264;BME280;26998;48.714;9.414;2023-10-13T07:49:19;99374.84;;;14.29;100.00
41264;BME280;26998;48.714;9.414;2023-10-13T07:51:46;99328.06;;;14.50;100.00
41264;BME280;26998;48.714;9.414;2023-10-13T07:54:16;99291.22;;;14.58;100.00
41264;BME280;26998;48.714;9.414;2023-10-13T07:56:44;99259.16;;;14.94;100.00
41264;BME280;26998;48.714;9.414;2023-10-13T07:59:11;99244.59;;;15.09;100.00
41264;BME280;26998;48.714;9.414;2023-10-13T08:01:37;99214.81;;;15.29;100.00
41264;BME280;26998;48.714;9.414;2023-10-13T08:04:04;99208.88;;;15.20;100.00
41264;BME280;26998;48.714;9.414;2023-10-13T08:06:33;99194.88;;;15.36;100.00
41264;BME280;26998;48.714;9.414;2023-10-13T08:08:59;99175.22;;;15.54;100.00
41264;BME280;26998;48.714;9.414;2023-10-13T08:11:29;99173.88;;;15.63;100.00
41264;BME280;26998;48.714;9.414;2023-10-13T08:14:01;99141.22;;;15.78;100.00
41264;BME280;26998;48.714;9.414;2023-10-13T08:16:40;99117.69;;;16.04;100.00
41264;BME280;26998;48.714;9.414;2023-10-13T08:19:07;99099.88;;;16.03;100.00
41264;BME280;26998;48.714;9.414;2023-10-13T08:21:34;99079.81;;;16.29;100.00
41264;BME280;26998;48.714;9.414;2023-10-13T08:24:00;99047.97;;;16.49;100.00
41264;BME280;26998;48.714;9.414;2023-10-13T08:26:28;99038.25;;;16.72;100.00
41264;BME280;26998;48.714;9.414;2023-10-13T08:28:57;99012.34;;;17.29;100.00
41264;BME280;26998;48.714;9.414;2023-10-13T08:31:27;98993.28;;;17.36;100.00
41264;BME280;26998;48.714;9.414;2023-10-13T08:33:54;98946.13;;;17.55;100.00
41264;BME280;26998;48.714;9.414;2023-10-13T08:36:20;98915.13;;;17.46;100.00
41264;BME280;26998;48.714;9.414;2023-10-13T08:38:47;98888.31;;;18.02;100.00
41264;BME280;26998;48.714;9.414;2023-10-13T08:41:14;98855.59;;;18.04;100.00
41264;BME280;26998;48.714;9.414;2023-10-13T08:43:42;98828.72;;;18.14;100.00
41264;BME280;26998;48.714;9.414;2023-10-13T08:46:09;98803.16;;;18.43;100.00
41264;BME280;26998;48.714;9.414;2023-10-13T08:48:36;98785.00;;;18.61;100.00
41264;BME280;26998;48.714;9.414;2023-10-13T08:51:04;98763.44;;;18.71;100.00
41264;BME280;26998;48.714;9.414;2023-10-13T08:53:32;98738.25;;;18.92;100.00
41264;BME280;26998;48.714;9.414;2023-10-13T08:56:01;98708.25;;;18.94;100.00
41264;BME280;26998;48.714;9.414;2023-10-13T08:58:29;98707.00;;;19.07;100.00
41264;BME280;26998;48.714;9.414;2023-10-13T09:00:56;98679.09;;;19.44;100.00
41264;BME280;26998;48.714;9.414;2023-10-13T09:03:25;98685.56;;;19.70;100.00
41264;BME280;26998;48.714;9.414;2023-10-13T09:05:52;98675.03;;;19.78;100.00
41264;BME280;26998;48.714;9.414;2023-10-13T09:08:25;98670.06;;;20.18;100.00
41264;BME280;26998;48.714;9.414;2023-10-13T09:10:57;98663.00;;;20.12;100.00
41264;BME280;26998;48.714;9.414;2023-10-13T09:13:34;98662.25;;;20.37;100.00
41264;BME280;26998;48.714;9.414;2023-10-13T09:16:09;98653.13;;;20.53;100.00
41264;BME280;26998;48.714;9.414;2023-10-13T09:18:36;98651.78;;;20.61;100.00
41264;BME280;26998;48.714;9.414;2023-10-13T09:21:02;98654.78;;;20.69;100.00
41264;BME280;26998;48.714;9.414;2023-10-13T09:23:30;98652.34;;;20.83;100.00
41264;BME280;26998;48.714;9.414;2023-10-13T09:26:05;98644.47;;;20.76;100.00
41264;BME280;26998;48.714;9.414;2023-10-13T09:28:33;98646.88;;;20.52;98.57
41264;BME280;26998;48.714;9.414;2023-10-13T09:31:00;98637.97;;;20.98;98.79
41264;BME280;26998;48.714;9.414;2023-10-13T09:33:32;98633.91;;;20.95;97.73
41264;BME280;26998;48.714;9.414;2023-10-13T09:35:59;98627.13;;;20.98;96.53
41264;BME280;26998;48.714;9.414;2023-10-13T09:38:29;98620.31;;;21.06;95.47
41264;BME280;26998;48.714;9.414;2023-10-13T09:40:56;98625.75;;;21.16;95.24
41264;BME280;26998;48.714;9.414;2023-10-13T09:43:24;98616.22;;;21.29;91.88
41264;BME280;26998;48.714;9.414;2023-10-13T09:46:02;98618.41;;;21.27;92.51
41264;BME280;26998;48.714;9.414;2023-10-13T09:48:33;98607.75;;;21.61;90.96
41264;BME280;26998;48.714;9.414;2023-10-13T09:51:03;98597.56;;;22.52;85.44
41264;BME280;26998;48.714;9.414;2023-10-13T09:53:32;98599.31;;;22.38;86.36
41264;BME280;26998;48.714;9.414;2023-10-13T09:56:13;98596.13;;;22.65;87.32
41264;BME280;26998;48.714;9.414;2023-10-13T09:58:48;98597.31;;;22.53;87.83
41264;BME280;26998;48.714;9.414;2023-10-13T10:01:24;98594.16;;;22.75;81.86
41264;BME280;26998;48.714;9.414;2023-10-13T10:03:51;98592.72;;;23.17;71.47
41264;BME280;26998;48.714;9.414;2023-10-13T10:06:26;98593.34;;;22.75;67.34
41264;BME280;26998;48.714;9.414;2023-10-13T10:09:04;98586.84;;;23.05;61.95
41264;BME280;26998;48.714;9.414;2023-10-13T10:14:51;98581.59;;;23.43;59.71
41264;BME280;26998;48.714;9.414;2023-10-13T10:17:23;98576.75;;;23.88;57.09
41264;BME280;26998;48.714;9.414;2023-10-13T10:19:56;98577.38;;;23.26;59.66
41264;BME280;26998;48.714;9.414;2023-10-13T10:22:25;98577.28;;;23.61;58.69
41264;BME280;26998;48.714;9.414;2023-10-13T10:25:11;98569.16;;;24.47;53.30
41264;BME280;26998;48.714;9.414;2023-10-13T10:27:41;98566.44;;;24.23;54.96
41264;BME280;26998;48.714;9.414;2023-10-13T10:30:07;98562.69;;;24.37;53.42
41264;BME280;26998;48.714;9.414;2023-10-13T10:32:37;98563.63;;;24.52;50.63
41264;BME280;26998;48.714;9.414;2023-10-13T10:35:07;98561.53;;;24.43;49.93
41264;BME280;26998;48.714;9.414;2023-10-13T10:37:34;98559.75;;;24.53;47.20
41264;BME280;26998;48.714;9.414;2023-10-13T10:40:08;98560.13;;;24.98;43.46
41264;BME280;26998;48.714;9.414;2023-10-13T10:42:36;98546.22;;;25.13;43.88
41264;BME280;26998;48.714;9.414;2023-10-13T10:45:08;98538.44;;;25.01;41.42
41264;BME280;26998;48.714;9.414;2023-10-13T10:47:36;98543.03;;;25.06;41.34
41264;BME280;26998;48.714;9.414;2023-10-13T10:50:05;98541.38;;;25.38;40.98
41264;BME280;26998;48.714;9.414;2023-10-13T10:52:32;98532.69;;;25.03;42.54
41264;BME280;26998;48.714;9.414;2023-10-13T10:54:59;98532.56;;;25.27;40.95
41264;BME280;26998;48.714;9.414;2023-10-13T10:57:26;98521.34;;;25.84;41.01
41264;BME280;26998;48.714;9.414;2023-10-13T10:59:55;98528.56;;;26.16;39.13
41264;BME280;26998;48.714;9.414;2023-10-13T11:02:30;98523.22;;;26.11;37.66
41264;BME280;26998;48.714;9.414;2023-10-13T11:04:58;98517.84;;;26.06;35.98
41264;BME280;26998;48.714;9.414;2023-10-13T11:07:25;98511.88;;;26.26;35.98
41264;BME280;26998;48.714;9.414;2023-10-13T11:09:51;98515.25;;;25.87;34.38
41264;BME280;26998;48.714;9.414;2023-10-13T11:12:19;98502.97;;;25.70;36.09
41264;BME280;26998;48.714;9.414;2023-10-13T11:14:45;98499.25;;;25.52;35.28
41264;BME280;26998;48.714;9.414;2023-10-13T11:17:18;98494.34;;;25.63;37.18
41264;BME280;26998;48.714;9.414;2023-10-13T11:19:46;98490.44;;;25.83;37.99
41264;BME280;26998;48.714;9.414;2023-10-13T11:24:42;98482.34;;;26.82;36.88
41264;BME280;26998;48.714;9.414;2023-10-13T11:27:16;98472.91;;;27.28;34.42
41264;BME280;26998;48.714;9.414;2023-10-13T11:29:47;98473.53;;;27.25;32.58
41264;BME280;26998;48.714;9.414;2023-10-13T11:32:14;98468.38;;;27.23;32.73
41264;BME280;26998;48.714;9.414;2023-10-13T11:34:42;98461.63;;;27.29;32.76
41264;BME280;26998;48.714;9.414;2023-10-13T11:37:08;98470.72;;;26.76;33.42
41264;BME280;26998;48.714;9.414;2023-10-13T11:39:41;98472.19;;;26.60;30.95
41264;BME280;26998;48.714;9.414;2023-10-13T11:42:07;98472.94;;;26.74;31.53
41264;BME280;26998;48.714;9.414;2023-10-13T11:44:34;98470.63;;;26.90;30.19
41264;BME280;26998;48.714;9.414;2023-10-13T11:47:03;98468.56;;;26.95;29.54
41264;BME280;26998;48.714;9.414;2023-10-13T11:49:30;98465.00;;;27.26;30.23
41264;BME280;26998;48.714;9.414;2023-10-13T11:51:57;98465.78;;;27.18;30.67
41264;BME280;26998;48.714;9.414;2023-10-13T11:54:23;98456.16;;;27.29;29.70
41264;BME280;26998;48.714;9.414;2023-10-13T11:56:52;98448.44;;;27.49;29.31
41264;BME280;26998;48.714;9.414;2023-10-13T11:59:22;98455.69;;;27.53;29.46
41264;BME280;26998;48.714;9.414;2023-10-13T12:01:50;98449.56;;;27.56;28.53
41264;BME280;26998;48.714;9.414;2023-10-13T12:04:18;98440.88;;;27.63;27.63
41264;BME280;26998;48.714;9.414;2023-10-13T12:06:48;98439.41;;;27.48;27.14
41264;BME280;26998;48.714;9.414;2023-10-13T12:09:15;98427.44;;;27.53;28.30
41264;BME280;26998;48.714;9.414;2023-10-13T12:14:17;98421.38;;;27.82;27.82
41264;BME280;26998;48.714;9.414;2023-10-13T12:16:46;98426.72;;;28.04;28.20
41264;BME280;26998;48.714;9.414;2023-10-13T12:19:16;98425.13;;;27.86;27.10
41264;BME280;26998;48.714;9.414;2023-10-13T12:21:43;98425.41;;;27.76;26.85
41264;BME280;26998;48.714;9.414;2023-10-13T12:24:10;98431.56;;;27.90;26.86
41264;BME280;26998;48.714;9.414;2023-10-13T12:26:37;98413.13;;;27.82;27.25
41264;BME280;26998;48.714;9.414;2023-10-13T12:29:04;98416.53;;;28.05;27.99
41264;BME280;26998;48.714;9.414;2023-10-13T12:31:31;98417.34;;;27.88;28.27
41264;BME280;26998;48.714;9.414;2023-10-13T12:33:57;98408.94;;;27.93;26.62
41264;BME280;26998;48.714;9.414;2023-10-13T12:36:24;98398.44;;;28.13;27.37
41264;BME280;26998;48.714;9.414;2023-10-13T12:38:51;98398.78;;;28.02;27.13
41264;BME280;26998;48.714;9.414;2023-10-13T12:41:20;98393.59;;;28.09;27.78
41264;BME280;26998;48.714;9.414;2023-10-13T12:44:02;98395.84;;;28.16;27.54
41264;BME280;26998;48.714;9.414;2023-10-13T12:46:32;98386.97;;;28.11;27.84
41264;BME280;26998;48.714;9.414;2023-10-13T12:49:02;98382.72;;;28.39;28.20
41264;BME280;26998;48.714;9.414;2023-10-13T12:51:29;98382.09;;;28.42;27.15
41264;BME280;26998;48.714;9.414;2023-10-13T12:53:56;98376.13;;;28.23;27.57
41264;BME280;26998;48.714;9.414;2023-10-13T12:56:24;98369.34;;;28.20;27.54
41264;BME280;26998;48.714;9.414;2023-10-13T12:58:50;98366.91;;;28.27;26.68
41264;BME280;26998;48.714;9.414;2023-10-13T13:01:23;98369.34;;;28.20;26.70